This is the latest recevied weather packets stored in our database for station/object KY0TEQ-13. If no packets are shown the sender has not sent any weather packets the latest 10 day(s).
| Time | Temp. | Humidity | Pressure | Rain* | Wind** | Luminosity | Snow |
|---|---|---|---|---|---|---|---|
| 1787928248 | 22.22° C | 34% | 1314.5 hPa | 0 mm | - | 193 W/m² | - |
| 1787927947 | 21.67° C | 37% | 1314.4 hPa | 0 mm | - | 300 W/m² | - |
| 1787927641 | 21.11° C | 40% | 1314.5 hPa | 0 mm | - | 269 W/m² | - |
| 1787927336 | 20.56° C | 40% | 1314.4 hPa | 0 mm | - | 179 W/m² | - |
| 1787927032 | 20° C | 41% | 1314.6 hPa | 0 mm | - | 161 W/m² | - |
| 1787926727 | 18.89° C | 43% | 1314.6 hPa | 0 mm | - | 145 W/m² | - |
| 1787926425 | 17.78° C | 47% | 1314.5 hPa | 0 mm | - | 119 W/m² | - |
| 1787926120 | 17.78° C | 47% | 1314.2 hPa | 0 mm | - | 73 W/m² | - |
| 1787925819 | 17.78° C | 46% | 1314.2 hPa | 0 mm | - | 66 W/m² | - |
| 1787925519 | 18.33° C | 48% | 1314 hPa | 0 mm | - | 81 W/m² | - |
| 1787925214 | 17.78° C | 45% | 1314.1 hPa | 0 mm | - | 71 W/m² | - |
| 1787924913 | 17.22° C | 45% | 1314.1 hPa | 0 mm | - | 77 W/m² | - |
| 1787924613 | 17.22° C | 47% | 1314.1 hPa | 0 mm | - | 60 W/m² | - |
| 1787924308 | 17.22° C | 46% | 1313.8 hPa | 0 mm | - | 51 W/m² | - |
| 1787924003 | 17.22° C | 45% | 1314 hPa | 0 mm | - | 46 W/m² | - |
| 1787923703 | 17.22° C | 44% | 1314 hPa | 0 mm | - | 45 W/m² | - |
| 1787923398 | 16.67° C | 46% | 1314 hPa | 0 mm | - | 43 W/m² | - |
| 1787923093 | 16.11° C | 48% | 1314 hPa | 0 mm | - | 41 W/m² | - |
| 1787922788 | 15.56° C | 50% | 1313.8 hPa | 0 mm | - | 33 W/m² | - |
| 1787922487 | 15° C | 53% | 1313.8 hPa | 0 mm | - | 29 W/m² | - |
| 1787922187 | 13.89° C | 55% | 1313.5 hPa | 0 mm | - | 21 W/m² | - |
| 1787921884 | 13.89° C | 57% | 1313.8 hPa | 0 mm | - | 17 W/m² | - |
| 1787921579 | 15° C | 51% | 1313.5 hPa | 0 mm | - | 13 W/m² | - |
| 1787921274 | 13.89° C | 53% | 1313.5 hPa | 0 mm | - | 8 W/m² | - |
| 1787920970 | 13.33° C | 55% | 1313.6 hPa | 0 mm | - | 6 W/m² | - |
* Rain latest hour (hover to see other rain measurements)
** Current wind speed in m/s (hover to see current wind gust speed)